createdAt,value
2022-08-05T00:01:00.905Z,26.94
2022-08-05T00:06:22.249Z,27.06
2022-08-05T00:16:15.276Z,26.81
2022-08-05T00:21:24.223Z,26.69
2022-08-05T00:26:33.209Z,26.44
2022-08-05T00:31:54.599Z,26.31
2022-08-05T00:37:09.549Z,26.25
2022-08-05T00:42:00.108Z,26.06
2022-08-05T00:47:09.162Z,26
2022-08-05T00:52:18.160Z,25.88
2022-08-05T00:57:31.663Z,25.75
2022-08-05T01:02:36.112Z,25.62
2022-08-05T01:08:29.995Z,25.44
2022-08-05T01:13:00.440Z,25.25
2022-08-05T01:23:14.508Z,25
2022-08-05T01:28:20.936Z,24.94
2022-08-05T01:33:35.246Z,24.94
2022-08-05T01:38:39.144Z,25
2022-08-05T01:43:48.874Z,25.19
2022-08-05T01:48:57.097Z,25.19
2022-08-05T01:54:05.821Z,25.06
2022-08-05T01:59:15.005Z,25.06
2022-08-05T02:04:23.987Z,25
2022-08-05T02:09:33.078Z,25
2022-08-05T02:14:42.141Z,25.06
2022-08-05T02:19:51.196Z,25.06
2022-08-05T02:25:00.389Z,25.12
2022-08-05T02:30:09.240Z,25.19
2022-08-05T02:35:19.068Z,25.12
2022-08-05T02:40:27.642Z,25.12
2022-08-05T02:45:51.713Z,25.06
2022-08-05T02:50:45.370Z,25
2022-08-05T02:55:59.785Z,25.12
2022-08-05T03:01:03.586Z,25
2022-08-05T03:06:53.261Z,24.94
2022-08-05T03:11:55.873Z,24.94
2022-08-05T03:21:41.467Z,24.94
2022-08-05T03:26:49.352Z,24.94
2022-08-05T03:32:00.325Z,24.75
2022-08-05T03:37:06.494Z,24.56
2022-08-05T03:42:15.679Z,24.44
2022-08-05T03:47:24.989Z,24.69
2022-08-05T03:52:35.721Z,24.56
2022-08-05T04:02:45.357Z,24.37
2022-08-05T04:07:57.643Z,24.31
2022-08-05T04:12:58.877Z,24.12
2022-08-05T04:18:07.947Z,24
2022-08-05T04:28:14.922Z,24
2022-08-05T04:43:46.714Z,23.81
2022-08-05T04:48:51.758Z,23.62
2022-08-05T04:58:58.805Z,23.38
2022-08-05T05:04:07.974Z,23.31
2022-08-05T05:09:17.574Z,23.31
2022-08-05T05:34:30.300Z,23.62
2022-08-05T05:39:39.585Z,23.81
2022-08-05T05:44:48.482Z,23.81
2022-08-05T05:50:01.380Z,23.69
2022-08-05T05:55:07.559Z,23.69
2022-08-05T06:00:15.508Z,23.75
2022-08-05T06:20:21.607Z,23.44
2022-08-05T06:26:00.006Z,23.44
2022-08-05T06:30:37.264Z,23.5
2022-08-05T06:36:04.389Z,23.62
2022-08-05T06:40:55.438Z,23.62
2022-08-05T06:46:07.555Z,23.75
2022-08-05T06:51:22.786Z,24.25
2022-08-05T06:56:25.715Z,24.63
2022-08-05T07:01:34.742Z,25.06
2022-08-05T07:11:52.898Z,25.37
2022-08-05T07:17:57.986Z,25.69
2022-08-05T07:22:11.133Z,25.81
2022-08-05T07:27:21.501Z,26.56
2022-08-05T07:32:29.735Z,26.69
2022-08-05T07:37:39.413Z,26.62
2022-08-05T07:42:47.726Z,26.75
2022-08-05T07:47:56.704Z,26.94
2022-08-05T07:53:05.813Z,26.94
2022-08-05T07:58:17.570Z,27.13
2022-08-05T08:03:23.952Z,26.75
2022-08-05T08:08:32.742Z,26.37
2022-08-05T08:13:42.876Z,26.25
2022-08-05T08:18:50.952Z,26.25
2022-08-05T08:24:04.494Z,26.19
2022-08-05T08:29:22.050Z,26.19
2022-08-05T08:34:18.498Z,26.25
2022-08-05T08:39:27.185Z,26.44
2022-08-05T08:45:22.011Z,26.31
2022-08-05T08:50:05.519Z,26.44
2022-08-05T08:54:53.875Z,26.44
2022-08-05T09:00:04.341Z,26.87
2022-08-05T09:05:17.196Z,27.5
2022-08-05T09:10:21.480Z,27.44
2022-08-05T09:15:30.621Z,27.81
2022-08-05T09:20:40.050Z,28.44
2022-08-05T09:26:00.727Z,28.75
2022-08-05T09:30:58.282Z,28.69
2022-08-05T09:36:11.638Z,28.69
2022-08-05T09:41:16.446Z,28.62
2022-08-05T09:46:27.360Z,28.87
2022-08-05T09:51:36.488Z,29.56
2022-08-05T09:56:48.364Z,29.5
2022-08-05T10:01:57.732Z,29.56
2022-08-05T10:07:06.117Z,29.75
2022-08-05T10:17:37.100Z,29.69
2022-08-05T10:22:29.584Z,29.56
2022-08-05T10:27:38.792Z,29.56
2022-08-05T10:32:55.321Z,29.81
2022-08-05T10:37:56.472Z,30.25
2022-08-05T10:43:05.714Z,30.56
2022-08-05T10:48:29.306Z,29.63
2022-08-05T11:03:23.985Z,29.37
2022-08-05T11:08:36.881Z,29.44
2022-08-05T11:13:38.107Z,28.69
2022-08-05T11:18:47.399Z,29.56
2022-08-05T11:24:03.450Z,30.62
2022-08-05T11:29:12.382Z,30.69
2022-08-05T11:34:18.069Z,31.37
2022-08-05T11:39:25.030Z,30.44
2022-08-05T11:54:33.003Z,30.25
2022-08-05T11:59:41.458Z,30
2022-08-05T12:04:46.950Z,29.75
2022-08-05T12:09:56.396Z,30.75
2022-08-05T12:15:05.898Z,30.62
2022-08-05T12:20:16.603Z,29.81
2022-08-05T12:25:26.869Z,30.12
2022-08-05T12:30:33.003Z,31.31
2022-08-05T12:40:50.722Z,30.56
2022-08-05T12:45:59.962Z,30.25
2022-08-05T12:51:08.530Z,29.75
2022-08-05T12:56:24.604Z,29.12
2022-08-05T13:01:59.412Z,28.87
2022-08-05T13:06:35.002Z,29.63
2022-08-05T13:12:01.399Z,30.5
2022-08-05T13:16:53.666Z,30.19
2022-08-05T13:22:02.532Z,29.5
2022-08-05T13:27:16.961Z,29.44
2022-08-05T13:32:21.419Z,28.94
2022-08-05T13:37:34.351Z,30.06
2022-08-05T13:42:39.087Z,30.12
2022-08-05T13:48:09.009Z,31.87
2022-08-05T13:52:58.721Z,32.38
2022-08-05T14:03:09.156Z,33.19
2022-08-05T14:08:20.633Z,34.13
2022-08-05T14:13:27.644Z,34.69
2022-08-05T14:18:36.050Z,33.31
2022-08-05T14:23:45.274Z,33.63
2022-08-05T14:28:54.070Z,33.38
2022-08-05T14:34:03.239Z,33.56
2022-08-05T14:44:21.870Z,33.44
2022-08-05T14:49:32.053Z,33.25
2022-08-05T14:54:38.939Z,31.06
2022-08-05T14:59:47.985Z,30.94
2022-08-05T15:04:56.816Z,30.25
2022-08-05T15:15:15.244Z,31.56
2022-08-05T15:20:24.756Z,32.13
2022-08-05T15:25:40.786Z,31.69
2022-08-05T15:30:42.102Z,30.62
2022-08-05T15:41:20.406Z,28.38
2022-08-05T15:46:08.273Z,28.06
2022-08-05T15:51:17.226Z,27.87
2022-08-05T16:01:39.357Z,27.69
2022-08-05T16:06:44.127Z,27
2022-08-05T16:11:53.950Z,26.56
2022-08-05T16:17:01.882Z,27.19
2022-08-05T16:22:15.424Z,27.37
2022-08-05T16:27:32.408Z,26.75
2022-08-05T16:32:29.374Z,26
2022-08-05T16:38:03.831Z,26.06
2022-08-05T16:42:46.725Z,26.44
2022-08-05T16:47:58.579Z,27.62
2022-08-05T16:53:12.167Z,27.5
2022-08-05T16:58:14.138Z,26.87
2022-08-05T17:03:22.934Z,26.75
2022-08-05T17:08:33.318Z,26.12
2022-08-05T17:13:41.366Z,24.94
2022-08-05T17:18:51.996Z,24.25
2022-08-05T17:24:04.181Z,24
2022-08-05T17:29:09.980Z,23.69
2022-08-05T17:34:17.928Z,23.5
2022-08-05T17:39:29.859Z,23.38
2022-08-05T17:44:34.626Z,23.25
2022-08-05T17:49:51.911Z,23.12
2022-08-05T17:54:52.716Z,22.87
2022-08-05T18:00:03.933Z,22.81
2022-08-05T18:05:10.751Z,22.62
2022-08-05T18:10:20.646Z,22.56
2022-08-05T18:15:31.144Z,22.56
2022-08-05T18:20:37.715Z,22.5
2022-08-05T18:25:46.727Z,22.5
2022-08-05T18:30:55.650Z,22.44
2022-08-05T18:36:10.517Z,22.44
2022-08-05T18:41:52.931Z,22.44
2022-08-05T18:46:25.983Z,22.44
2022-08-05T18:52:03.477Z,22.31
2022-08-05T18:56:50.751Z,22.25
2022-08-05T19:01:56.904Z,22.19
2022-08-05T19:07:00.527Z,22.13
2022-08-05T19:12:10.558Z,22
2022-08-05T19:17:18.520Z,21.94
2022-08-05T19:22:27.937Z,21.87
2022-08-05T19:27:36.713Z,21.75
2022-08-05T19:32:45.661Z,21.69
2022-08-05T19:38:04.357Z,21.62
2022-08-05T19:43:05.097Z,21.56
2022-08-05T19:48:14.225Z,21.5
2022-08-05T19:54:03.769Z,21.37
2022-08-05T19:58:30.585Z,21.31
2022-08-05T20:03:40.969Z,21.25
2022-08-05T20:08:48.933Z,21.19
2022-08-05T20:13:59.206Z,21.12
2022-08-05T20:24:04.814Z,20.94
2022-08-05T20:29:26.502Z,20.88
2022-08-05T20:34:22.845Z,20.75
2022-08-05T20:39:35.724Z,20.69
2022-08-05T20:44:40.817Z,20.56
2022-08-05T20:49:51.263Z,20.5
2022-08-05T21:04:55.069Z,20.25
2022-08-05T21:20:04.369Z,20
2022-08-05T21:35:08.552Z,19.75
2022-08-05T21:40:16.439Z,19.75
2022-08-05T21:45:51.784Z,19.69
2022-08-05T21:50:33.072Z,19.69
2022-08-05T21:55:43.321Z,19.56
2022-08-05T22:00:51.620Z,19.56
2022-08-05T22:06:00.122Z,19.5
2022-08-05T22:11:09.138Z,19.44
2022-08-05T22:16:39.346Z,19.37
2022-08-05T22:26:25.345Z,19.19
2022-08-05T22:42:05.214Z,19.06
2022-08-05T22:46:40.591Z,19
2022-08-05T22:52:02.866Z,18.87
2022-08-05T22:56:58.178Z,18.81
2022-08-05T23:02:07.868Z,18.75
2022-08-05T23:07:16.194Z,18.69
2022-08-05T23:12:25.367Z,18.75
2022-08-05T23:17:37.801Z,18.62
2022-08-05T23:22:43.127Z,18.5
2022-08-05T23:27:57.993Z,18.44
2022-08-05T23:33:01.011Z,18.37
2022-08-05T23:38:12.043Z,18.44
2022-08-05T23:43:24.710Z,18.37
2022-08-05T23:48:28.086Z,18.37
2022-08-05T23:53:46.261Z,18.37
2022-08-05T23:58:46.109Z,18.37
